Time;durP1;ratioP1;P1;durP2;ratioP2;P2;SDS_P1;SDS_P2;PMS_P1;PMS_P2;Temp;Humidity;BMP_temperature;BMP_pressure;BME280_temperature;BME280_humidity;BME280_pressure;Samples;Min_cycle;Max_cycle;Signal;HPM_P1;HPM_P2
2023/01/28 00:02:07;;;;;;;3.67;3.47;;;15.80;61.10;;;;;;4192576;28;20117;-59
2023/01/28 00:04:49;;;;;;;3.72;3.53;;;15.70;61.20;;;;;;4194819;28;20178;-59
2023/01/28 00:07:30;;;;;;;3.50;3.30;;;15.70;62.30;;;;;;4194272;28;20110;-59
2023/01/28 00:10:11;;;;;;;3.70;3.45;;;15.70;61.30;;;;;;4189940;28;20061;-59
2023/01/28 00:12:52;;;;;;;3.47;3.28;;;15.70;61.40;;;;;;4190208;28;20533;-59
2023/01/28 00:15:33;;;;;;;3.70;3.50;;;15.70;61.60;;;;;;4194777;28;20055;-60
2023/01/28 00:18:14;;;;;;;4.00;3.70;;;15.70;61.60;;;;;;4194525;28;20294;-60
2023/01/28 00:21:01;;;;;;;4.07;3.85;;;15.60;61.80;;;;;;4178407;28;20129;-60
2023/01/28 00:23:47;;;;;;;3.70;3.45;;;15.60;61.80;;;;;;4194012;28;20760;-60
2023/01/28 00:26:28;;;;;;;3.55;3.35;;;15.60;62.00;;;;;;4194327;28;20065;-60
2023/01/28 00:29:09;;;;;;;3.88;3.60;;;15.70;61.70;;;;;;4193915;28;20048;-60
2023/01/28 00:31:50;;;;;;;3.58;3.38;;;15.70;61.40;;;;;;4181711;28;20614;-60
2023/01/28 00:34:30;;;;;;;3.33;3.13;;;15.80;61.50;;;;;;4183959;28;20131;-60
2023/01/28 00:37:13;;;;;;;3.65;3.45;;;15.80;61.40;;;;;;4193597;28;20154;-60
2023/01/28 00:39:54;;;;;;;3.80;3.50;;;15.80;61.20;;;;;;4189733;28;20177;-59
2023/01/28 00:42:37;;;;;;;3.10;3.00;;;15.80;61.00;;;;;;4193812;28;20059;-59
2023/01/28 00:45:19;;;;;;;3.47;3.17;;;15.80;61.00;;;;;;4181440;28;20054;-59
2023/01/28 00:48:00;;;;;;;2.80;2.70;;;15.80;61.00;;;;;;4193658;28;20047;-59
2023/01/28 00:50:41;;;;;;;2.50;2.40;;;15.80;61.00;;;;;;4193622;28;20086;-60
2023/01/28 00:53:23;;;;;;;2.83;2.63;;;15.80;62.10;;;;;;4194346;28;20102;-59
2023/01/28 00:56:05;;;;;;;3.67;2.30;;;15.70;61.20;;;;;;4193090;28;20051;-60
2023/01/28 00:58:46;;;;;;;2.50;2.40;;;15.60;61.20;;;;;;4194332;28;20182;-59
2023/01/28 01:01:28;;;;;;;2.70;2.60;;;15.50;60.90;;;;;;4192278;28;20062;-60
2023/01/28 01:04:08;;;;;;;2.53;2.42;;;15.50;61.60;;;;;;4165750;28;20052;-59
2023/01/28 01:06:49;;;;;;;2.63;2.50;;;15.50;62.00;;;;;;4176543;28;20056;-59
2023/01/28 01:09:33;;;;;;;2.70;2.60;;;15.50;61.80;;;;;;4176915;28;20047;-59
2023/01/28 01:12:16;;;;;;;3.50;2.42;;;15.70;61.80;;;;;;4191292;28;20071;-59
2023/01/28 01:14:57;;;;;;;3.15;2.72;;;15.80;62.40;;;;;;4193624;28;20056;-59
2023/01/28 01:17:39;;;;;;;;;;;15.80;61.30;;;;;;4165987;28;20047;-59
2023/01/28 01:20:22;;;;;;;2.95;2.85;;;15.90;61.40;;;;;;4193767;28;19934;-59
2023/01/28 01:23:04;;;;;;;3.15;3.05;;;16.00;61.10;;;;;;4193073;28;20052;-59
2023/01/28 01:25:46;;;;;;;3.10;3.00;;;16.10;60.70;;;;;;4193040;28;20052;-59
2023/01/28 01:28:27;;;;;;;3.17;2.88;;;16.10;60.40;;;;;;4190655;28;20083;-59
2023/01/28 01:31:13;;;;;;;2.40;2.25;;;16.10;60.40;;;;;;4192534;28;20054;-59
2023/01/28 01:33:54;;;;;;;2.78;2.42;;;16.20;60.50;;;;;;4175454;28;20047;-59
2023/01/28 01:36:37;;;;;;;2.15;2.05;;;16.20;60.40;;;;;;4169998;28;20099;-59
2023/01/28 01:39:18;;;;;;;2.22;2.10;;;16.20;60.30;;;;;;4194696;28;20117;-59
2023/01/28 01:42:01;;;;;;;2.58;2.40;;;16.20;60.30;;;;;;4187615;28;20052;-70
2023/01/28 01:44:57;;;;;;;2.50;2.38;;;16.30;60.30;;;;;;4191790;28;20055;-69
2023/01/28 01:47:45;;;;;;;5.15;2.53;;;16.30;59.80;;;;;;4192110;28;20477;-60
2023/01/28 01:50:32;;;;;;;4.53;2.67;;;16.30;60.00;;;;;;4139506;28;20053;-69
2023/01/28 01:53:16;;;;;;;3.08;2.58;;;16.20;59.90;;;;;;4189356;28;20060;-69
2023/01/28 01:56:00;;;;;;;2.00;1.90;;;16.20;60.20;;;;;;4192403;28;20063;-70
2023/01/28 01:58:46;;;;;;;2.38;2.22;;;16.10;60.40;;;;;;4166575;28;20063;-69
2023/01/28 02:01:31;;;;;;;2.45;2.35;;;16.00;60.60;;;;;;4184677;28;20060;-69
2023/01/28 02:04:19;;;;;;;2.28;2.17;;;16.00;61.10;;;;;;4164095;28;20052;-68
2023/01/28 02:07:02;;;;;;;2.42;2.30;;;16.00;60.90;;;;;;4175616;28;20056;-68
2023/01/28 02:09:43;;;;;;;2.58;2.38;;;16.10;60.80;;;;;;4177558;28;20048;-69
2023/01/28 02:12:32;;;;;;;2.78;2.10;;;16.00;60.60;;;;;;4201165;28;20075;-69
2023/01/28 02:15:19;;;;;;;2.60;2.45;;;16.00;61.60;;;;;;4171209;28;20048;-69
2023/01/28 02:18:02;;;;;;;2.45;2.17;;;15.90;60.70;;;;;;4169559;28;20055;-69
2023/01/28 02:21:09;;;;;;;4.05;2.30;;;15.90;61.00;;;;;;4180355;28;20132;-69
2023/01/28 02:24:09;;;;;;;2.33;2.20;;;15.90;61.30;;;;;;4173345;28;20052;-70
2023/01/28 02:27:03;;;;;;;3.35;2.10;;;15.90;61.20;;;;;;4152981;28;20095;-69
2023/01/28 02:29:54;;;;;;;3.92;2.58;;;15.90;61.00;;;;;;4175689;28;20093;-69
2023/01/28 02:32:41;;;;;;;4.90;2.92;;;15.90;61.00;;;;;;4177686;28;20047;-69
2023/01/28 02:35:29;;;;;;;2.83;2.63;;;15.90;61.10;;;;;;4191814;28;20051;-69
2023/01/28 02:38:16;;;;;;;3.08;2.35;;;15.80;61.10;;;;;;4167939;28;20063;-69
2023/01/28 02:41:05;;;;;;;2.83;2.55;;;15.80;61.30;;;;;;4163384;28;20097;-68
2023/01/28 02:43:47;;;;;;;4.85;3.33;;;15.80;61.50;;;;;;4191291;28;20060;-70
2023/01/28 02:49:40;;;;;;;3.33;2.92;;;15.90;61.20;;;;;;4181938;28;20150;-69
2023/01/28 02:55:47;;;;;;;6.10;3.65;;;16.00;61.10;;;;;;4190838;28;20067;-70
2023/01/28 02:58:38;;;;;;;4.32;2.67;;;16.00;61.10;;;;;;4174501;28;20052;-70
2023/01/28 03:01:26;;;;;;;2.53;2.42;;;15.90;61.10;;;;;;4176460;28;20047;-69
2023/01/28 03:04:21;;;;;;;2.75;2.55;;;15.80;61.10;;;;;;4184887;28;20198;-69
2023/01/28 03:07:07;;;;;;;2.40;2.20;;;15.80;61.20;;;;;;4190662;28;20059;-68
2023/01/28 03:09:52;;;;;;;2.55;2.30;;;15.70;61.70;;;;;;4190906;28;20125;-69
2023/01/28 03:37:07;;;;;;;2.83;2.60;;;16.30;60.50;;;;;;4178882;28;20490;-70
2023/01/28 03:40:05;;;;;;;3.10;2.90;;;16.30;60.20;;;;;;4181811;28;20085;-70
2023/01/28 03:42:51;;;;;;;2.85;2.65;;;16.30;60.20;;;;;;4180487;28;20051;-69
2023/01/28 03:45:45;;;;;;;3.15;2.60;;;16.30;60.20;;;;;;4183620;28;20077;-69
2023/01/28 03:48:28;;;;;;;2.80;2.60;;;16.20;60.30;;;;;;4188945;28;20056;-69
2023/01/28 03:51:09;;;;;;;2.85;2.72;;;16.20;60.50;;;;;;4168638;28;20107;-70
2023/01/28 03:53:51;;;;;;;3.00;2.80;;;16.10;60.90;;;;;;4176768;28;20059;-69
2023/01/28 03:56:39;;;;;;;2.60;2.50;;;16.10;60.70;;;;;;4186220;28;20185;-59
2023/01/28 03:59:22;;;;;;;3.10;2.80;;;16.10;60.80;;;;;;4172976;28;20051;-59
2023/01/28 04:02:05;;;;;;;2.75;2.40;;;16.10;61.20;;;;;;4164909;28;20059;-60
2023/01/28 04:04:46;;;;;;;;;;;16.10;61.10;;;;;;4186866;28;20491;-60
2023/01/28 04:07:27;;;;;;;2.95;2.70;;;16.10;61.90;;;;;;4162180;28;20021;-59
2023/01/28 04:10:28;;;;;;;2.65;2.45;;;16.10;61.00;;;;;;4163271;28;20064;-59
2023/01/28 04:13:32;;;;;;;2.55;2.45;;;16.10;60.90;;;;;;4174842;28;20044;-70
2023/01/28 04:16:18;;;;;;;2.60;2.50;;;16.20;60.80;;;;;;4164181;28;20056;-69
2023/01/28 04:19:04;;;;;;;2.35;2.15;;;16.20;60.60;;;;;;4178254;28;20052;-69
2023/01/28 04:21:46;;;;;;;2.85;2.63;;;16.10;60.80;;;;;;4180001;28;20056;-69
2023/01/28 04:24:28;;;;;;;2.42;2.30;;;16.20;60.90;;;;;;4181133;28;20499;-69
2023/01/28 04:27:11;;;;;;;2.60;2.50;;;16.20;60.80;;;;;;4161680;28;20078;-69
2023/01/28 04:29:52;;;;;;;3.03;2.70;;;16.20;60.80;;;;;;4163577;28;20179;-69
2023/01/28 04:32:51;;;;;;;3.25;2.95;;;16.20;60.90;;;;;;4178228;28;20395;-68
2023/01/28 04:36:02;;;;;;;2.67;2.47;;;16.30;60.80;;;;;;4193230;28;20055;-59
2023/01/28 04:38:59;;;;;;;2.55;2.45;;;16.30;60.50;;;;;;4192195;28;20127;-60
2023/01/28 04:41:50;;;;;;;2.70;2.50;;;16.40;60.40;;;;;;4192581;28;20052;-60
2023/01/28 04:44:46;;;;;;;2.40;2.30;;;16.40;60.30;;;;;;4190582;28;20408;-59
2023/01/28 04:47:35;;;;;;;2.70;2.60;;;16.40;60.10;;;;;;4182952;28;20133;-59
2023/01/28 04:50:33;;;;;;;2.70;2.60;;;16.40;60.30;;;;;;4185219;28;20121;-60
2023/01/28 04:53:32;;;;;;;2.67;2.35;;;16.40;60.40;;;;;;4191829;28;20098;-59
2023/01/28 04:56:19;;;;;;;2.72;2.55;;;16.40;60.50;;;;;;4172566;28;20048;-60
2023/01/28 04:59:00;;;;;;;2.63;2.42;;;16.50;60.30;;;;;;4181542;28;20067;-59
2023/01/28 05:01:52;;;;;;;2.30;2.20;;;16.40;60.10;;;;;;4185044;28;20051;-59
2023/01/28 05:04:34;;;;;;;2.65;2.50;;;16.40;60.00;;;;;;4194192;28;20107;-59
2023/01/28 05:07:16;;;;;;;2.95;2.25;;;16.40;60.00;;;;;;4136521;28;20127;-59
2023/01/28 05:10:02;;;;;;;2.47;2.20;;;16.40;60.30;;;;;;4162138;28;20123;-59
2023/01/28 05:12:44;;;;;;;3.05;2.72;;;16.30;60.30;;;;;;4188682;28;20210;-59
2023/01/28 05:15:25;;;;;;;3.35;2.58;;;16.20;60.50;;;;;;4190585;28;20059;-59
2023/01/28 05:18:08;;;;;;;2.30;2.10;;;16.10;60.80;;;;;;4191671;28;20445;-59
2023/01/28 05:20:56;;;;;;;3.40;3.10;;;16.10;61.20;;;;;;4147840;28;20052;-59
2023/01/28 05:23:37;;;;;;;3.33;3.08;;;16.10;61.20;;;;;;4163496;28;20047;-59
2023/01/28 05:26:18;;;;;;;2.95;2.72;;;16.10;61.20;;;;;;4160768;28;20134;-59
2023/01/28 05:29:00;;;;;;;5.50;2.85;;;16.20;61.00;;;;;;4164044;28;20114;-59
2023/01/28 05:31:41;;;;;;;2.55;2.35;;;16.20;60.90;;;;;;4148517;28;20506;-58
2023/01/28 05:34:25;;;;;;;3.42;2.38;;;16.10;60.90;;;;;;4193076;28;20051;-59
2023/01/28 05:37:08;;;;;;;3.53;2.55;;;16.10;60.90;;;;;;4176301;28;20047;-59
2023/01/28 05:39:51;;;;;;;2.30;2.15;;;16.00;61.10;;;;;;4178383;28;20044;-59
2023/01/28 05:42:32;;;;;;;2.40;2.20;;;16.00;61.40;;;;;;4168854;28;20094;-58
2023/01/28 05:45:32;;;;;;;3.80;2.10;;;16.10;61.40;;;;;;4192452;28;20083;-59
2023/01/28 05:48:30;;;;;;;2.50;2.30;;;16.20;61.20;;;;;;4188037;28;20182;-59
2023/01/28 05:51:39;;;;;;;2.90;2.70;;;16.20;60.80;;;;;;4169439;28;20079;-59
2023/01/28 05:54:21;;;;;;;2.50;2.30;;;16.20;60.70;;;;;;4173287;28;20109;-59
2023/01/28 05:57:02;;;;;;;2.50;2.35;;;16.20;60.80;;;;;;4176516;28;20511;-60
2023/01/28 05:59:44;;;;;;;3.08;2.88;;;16.30;60.80;;;;;;4173433;28;20059;-59
2023/01/28 06:02:25;;;;;;;2.50;2.40;;;16.30;60.50;;;;;;4160872;28;20097;-59
2023/01/28 06:05:13;;;;;;;3.22;3.03;;;16.30;60.50;;;;;;4189122;28;20510;-59
2023/01/28 06:07:55;;;;;;;2.90;2.70;;;16.20;60.50;;;;;;4168938;28;20482;-59
2023/01/28 06:10:36;;;;;;;3.00;2.80;;;16.20;60.50;;;;;;4185774;28;20499;-60
2023/01/28 06:13:22;;;;;;;3.22;2.85;;;16.10;60.70;;;;;;4191184;28;20059;-60
2023/01/28 06:16:22;;;;;;;3.45;3.10;;;16.10;61.10;;;;;;4191461;28;20109;-60
2023/01/28 06:19:21;;;;;;;2.53;2.42;;;16.10;61.20;;;;;;4165672;28;20157;-60
2023/01/28 06:22:04;;;;;;;3.40;3.10;;;16.10;61.20;;;;;;4173962;28;20048;-60
2023/01/28 06:24:48;;;;;;;2.78;2.58;;;16.00;61.10;;;;;;4185819;28;20067;-59
2023/01/28 06:27:29;;;;;;;3.20;3.10;;;16.00;61.10;;;;;;4190943;28;20055;-59
2023/01/28 06:30:13;;;;;;;3.00;2.80;;;15.90;61.20;;;;;;4192357;28;20552;-59
2023/01/28 06:32:55;;;;;;;3.50;3.30;;;15.90;61.50;;;;;;4174864;28;20400;-59
2023/01/28 06:35:39;;;;;;;3.15;3.05;;;15.90;61.80;;;;;;4192539;28;20495;-59
2023/01/28 06:38:20;;;;;;;2.88;2.78;;;15.90;61.80;;;;;;4140800;28;20150;-59
2023/01/28 06:41:05;;;;;;;3.30;3.00;;;16.00;61.60;;;;;;4191345;28;20387;-59
2023/01/28 06:43:46;;;;;;;3.30;2.83;;;16.00;61.50;;;;;;4174897;28;20056;-59
2023/01/28 06:46:27;;;;;;;2.90;2.70;;;15.90;61.50;;;;;;4179386;28;20098;-60
2023/01/28 06:49:08;;;;;;;3.70;2.85;;;15.90;61.50;;;;;;4191014;28;20055;-59
2023/01/28 06:51:50;;;;;;;3.15;3.03;;;15.80;61.60;;;;;;4191645;28;20048;-59
2023/01/28 06:54:31;;;;;;;3.28;3.05;;;15.80;62.00;;;;;;4175684;28;20051;-59
2023/01/28 06:57:13;;;;;;;5.57;2.58;;;15.70;62.10;;;;;;4189019;28;20411;-59
2023/01/28 06:59:54;;;;;;;4.30;3.20;;;15.60;62.40;;;;;;4187746;28;20056;-60
2023/01/28 07:02:35;;;;;;;3.03;2.90;;;15.50;62.60;;;;;;4192040;28;20051;-59
2023/01/28 07:05:17;;;;;;;3.35;3.15;;;15.50;63.20;;;;;;4191919;28;20059;-59
2023/01/28 07:07:57;;;;;;;3.40;3.20;;;15.50;63.60;;;;;;4180653;28;20095;-60
2023/01/28 07:10:38;;;;;;;3.63;3.38;;;15.50;63.60;;;;;;4191970;28;20097;-59
2023/01/28 07:13:21;;;;;;;3.67;3.38;;;15.60;63.40;;;;;;4191487;28;20051;-61
2023/01/28 07:16:05;;;;;;;4.90;3.53;;;15.70;63.30;;;;;;4177224;28;20058;-61
2023/01/28 07:18:50;;;;;;;3.70;3.40;;;15.80;63.00;;;;;;4162789;28;20187;-62
2023/01/28 07:21:31;;;;;;;3.55;3.33;;;15.80;62.60;;;;;;4176645;28;20075;-62
2023/01/28 07:24:12;;;;;;;4.13;3.90;;;15.80;62.50;;;;;;4178385;28;20386;-61
2023/01/28 07:26:53;;;;;;;3.65;3.45;;;15.90;62.50;;;;;;4191197;28;20051;-61
2023/01/28 07:29:35;;;;;;;3.72;3.53;;;16.00;62.30;;;;;;4191531;28;20067;-61
2023/01/28 07:32:16;;;;;;;3.95;3.28;;;16.10;61.90;;;;;;4173693;28;20052;-61
2023/01/28 07:34:57;;;;;;;3.40;3.10;;;16.20;61.50;;;;;;4174678;28;20055;-60
2023/01/28 07:37:38;;;;;;;3.47;3.22;;;16.30;61.30;;;;;;4174778;28;20056;-62
2023/01/28 07:40:19;;;;;;;3.90;3.60;;;16.40;61.00;;;;;;4178814;28;20055;-62
2023/01/28 07:43:00;;;;;;;3.50;3.20;;;16.50;60.80;;;;;;4178805;28;20511;-62
2023/01/28 07:45:50;;;;;;;3.40;3.20;;;16.50;60.50;;;;;;4177636;28;20416;-62
2023/01/28 07:48:31;;;;;;;3.75;3.50;;;16.50;60.10;;;;;;4178571;28;20375;-61
2023/01/28 07:51:12;;;;;;;4.47;3.88;;;16.50;60.20;;;;;;4178595;28;20187;-62
2023/01/28 07:53:53;;;;;;;4.10;3.63;;;16.40;60.20;;;;;;4188399;28;20102;-62
2023/01/28 07:56:34;;;;;;;3.72;3.53;;;16.40;60.40;;;;;;4179289;28;20303;-62
2023/01/28 07:59:15;;;;;;;4.25;4.05;;;16.30;60.70;;;;;;4194716;28;20113;-61
2023/01/28 08:01:58;;;;;;;4.45;4.05;;;16.30;61.90;;;;;;4177653;28;20118;-62
2023/01/28 08:04:39;;;;;;;4.30;4.00;;;16.20;62.30;;;;;;4177990;28;20078;-60
2023/01/28 08:07:20;;;;;;;4.38;4.03;;;16.20;62.50;;;;;;4179279;28;20502;-61
2023/01/28 08:10:01;;;;;;;4.60;4.18;;;16.20;62.70;;;;;;4189761;28;20047;-61
2023/01/28 08:12:42;;;;;;;5.18;4.78;;;16.20;62.80;;;;;;4194352;28;20109;-61
2023/01/28 08:15:23;;;;;;;5.25;4.50;;;16.20;62.30;;;;;;4194721;28;20111;-61
2023/01/28 08:18:07;;;;;;;4.82;4.30;;;16.20;61.90;;;;;;4177065;28;20130;-61
2023/01/28 08:20:48;;;;;;;4.38;4.10;;;16.10;61.50;;;;;;4194627;28;20055;-61
2023/01/28 08:23:29;;;;;;;4.50;4.22;;;16.10;61.50;;;;;;4177281;28;20103;-61
2023/01/28 08:26:10;;;;;;;4.18;3.88;;;16.10;61.50;;;;;;4194322;28;20064;-61
2023/01/28 08:28:51;;;;;;;4.38;4.05;;;16.10;61.30;;;;;;4177752;28;20490;-61
2023/01/28 08:31:32;;;;;;;4.60;4.30;;;16.00;61.10;;;;;;4194489;28;20133;-61
2023/01/28 08:34:14;;;;;;;4.78;4.45;;;16.00;61.10;;;;;;4176631;28;20060;-61
2023/01/28 08:36:55;;;;;;;4.43;4.13;;;15.90;61.00;;;;;;4194618;28;20047;-61
2023/01/28 08:39:36;;;;;;;5.05;4.63;;;15.80;61.00;;;;;;4194500;28;20055;-61
2023/01/28 08:42:18;;;;;;;5.22;4.85;;;15.70;61.30;;;;;;4193139;28;20071;-61
2023/01/28 08:44:58;;;;;;;6.53;4.93;;;15.60;61.90;;;;;;4177417;28;20044;-60
2023/01/28 08:47:48;;;;;;;5.60;5.15;;;15.60;62.10;;;;;;4193325;28;20117;-61
2023/01/28 08:50:34;;;;;;;6.00;5.40;;;15.70;62.70;;;;;;4193578;28;20518;-61
2023/01/28 08:53:16;;;;;;;5.32;4.93;;;15.80;61.50;;;;;;4193365;28;20046;-61
2023/01/28 08:55:57;;;;;;;5.97;5.47;;;15.90;61.40;;;;;;4193749;28;20051;-60
2023/01/28 08:58:38;;;;;;;7.05;6.45;;;16.10;61.20;;;;;;4193902;28;20051;-59
2023/01/28 09:01:19;;;;;;;6.75;6.15;;;16.20;61.10;;;;;;4183014;28;20051;-60
2023/01/28 09:04:00;;;;;;;5.65;5.25;;;16.30;60.80;;;;;;4193845;28;20169;-60
2023/01/28 09:06:43;;;;;;;5.78;5.38;;;16.30;60.60;;;;;;4193572;28;20174;-61
2023/01/28 09:09:24;;;;;;;4.63;4.32;;;16.40;60.30;;;;;;4193614;28;20059;-61
2023/01/28 09:12:07;;;;;;;4.65;4.45;;;16.40;59.90;;;;;;4193786;28;20434;-60
2023/01/28 09:14:48;;;;;;;5.60;5.20;;;16.40;60.00;;;;;;4193928;28;20125;-60
2023/01/28 09:17:28;;;;;;;5.10;4.78;;;16.50;59.90;;;;;;4185202;28;20486;-61
2023/01/28 09:20:11;;;;;;;4.70;4.50;;;16.40;59.60;;;;;;4193752;28;20202;-61
2023/01/28 09:22:55;;;;;;;5.03;4.68;;;16.40;59.70;;;;;;4193677;28;20130;-60
2023/01/28 09:25:36;;;;;;;4.75;4.45;;;16.30;59.50;;;;;;4191904;28;20154;-61
2023/01/28 09:28:17;;;;;;;5.18;4.70;;;16.20;59.60;;;;;;4172251;28;20121;-61
2023/01/28 09:31:02;;;;;;;5.10;4.70;;;16.10;59.50;;;;;;4186689;28;20503;-61
2023/01/28 09:33:43;;;;;;;4.60;4.30;;;16.00;59.60;;;;;;4192244;28;20100;-61
2023/01/28 09:36:24;;;;;;;5.20;4.88;;;15.90;59.80;;;;;;4180644;28;20051;-61
2023/01/28 09:39:07;;;;;;;5.25;4.75;;;15.80;59.80;;;;;;4193311;28;20051;-61
2023/01/28 09:42:01;;;;;;;4.00;3.75;;;15.70;59.90;;;;;;4193480;28;20051;-60
2023/01/28 09:44:53;;;;;;;4.55;4.20;;;15.60;60.10;;;;;;4193082;28;20051;-61
2023/01/28 09:47:38;;;;;;;4.20;3.90;;;15.60;59.90;;;;;;4191719;28;20396;-61
2023/01/28 09:50:26;;;;;;;3.95;3.55;;;15.60;59.90;;;;;;4193098;28;20097;-60
2023/01/28 09:53:13;;;;;;;5.20;4.55;;;15.60;59.60;;;;;;4165242;28;20499;-61
2023/01/28 09:56:00;;;;;;;3.97;3.58;;;15.60;59.60;;;;;;4193002;28;20055;-60
2023/01/28 09:58:42;;;;;;;3.53;3.33;;;15.70;59.40;;;;;;4176355;28;20119;-60
2023/01/28 10:01:39;;;;;;;3.67;3.47;;;15.70;59.20;;;;;;4191438;28;20109;-61
2023/01/28 10:04:30;;;;;;;3.97;3.70;;;15.70;59.00;;;;;;4191354;28;20497;-61
2023/01/28 10:07:26;;;;;;;3.28;3.05;;;15.70;59.20;;;;;;4176932;28;20059;-60
2023/01/28 10:10:12;;;;;;;3.90;3.60;;;15.80;59.20;;;;;;4192527;28;20448;-60
2023/01/28 10:13:17;;;;;;;4.57;3.47;;;15.80;58.90;;;;;;4178981;28;20076;-60
2023/01/28 10:16:09;;;;;;;4.22;3.83;;;15.80;58.50;;;;;;4192284;28;20182;-63
2023/01/28 10:18:55;;;;;;;3.63;3.25;;;15.90;58.20;;;;;;4192555;28;20384;-60
2023/01/28 10:21:42;;;;;;;3.67;3.47;;;16.10;57.80;;;;;;4192828;28;20051;-60
2023/01/28 10:24:29;;;;;;;4.43;3.85;;;16.20;57.00;;;;;;4192576;28;20059;-60
2023/01/28 10:27:14;;;;;;;3.90;3.53;;;16.40;56.60;;;;;;4192383;28;20104;-61
2023/01/28 10:29:59;;;;;;;3.67;3.30;;;16.60;56.10;;;;;;4192775;28;20063;-61
2023/01/28 10:32:47;;;;;;;3.17;2.97;;;16.80;55.60;;;;;;4163323;28;20187;-61
2023/01/28 10:35:28;;;;;;;3.70;3.40;;;17.00;55.00;;;;;;4175761;28;20111;-61
2023/01/28 10:38:14;;;;;;;3.58;3.25;;;17.10;54.50;;;;;;4175801;28;20047;-61
2023/01/28 10:41:00;;;;;;;3.60;3.30;;;17.30;54.10;;;;;;4180836;28;20574;-61
2023/01/28 10:43:42;;;;;;;3.40;3.10;;;17.30;53.80;;;;;;4191239;28;20055;-61
2023/01/28 10:46:29;;;;;;;4.63;4.10;;;17.30;53.60;;;;;;4176257;28;20047;-61
2023/01/28 10:49:15;;;;;;;3.10;2.90;;;17.30;53.40;;;;;;4192196;28;20619;-61
2023/01/28 10:51:57;;;;;;;4.22;3.38;;;17.30;53.60;;;;;;4175311;28;20048;-61
2023/01/28 10:54:38;;;;;;;3.60;3.30;;;17.30;53.50;;;;;;4192285;28;20169;-61
2023/01/28 10:57:19;;;;;;;3.25;3.05;;;17.20;53.50;;;;;;4191916;28;20121;-61
2023/01/28 11:00:11;;;;;;;4.72;4.30;;;17.10;53.50;;;;;;4192566;28;20063;-61
2023/01/28 11:02:55;;;;;;;3.75;3.55;;;17.00;53.30;;;;;;4190979;28;20071;-61
2023/01/28 11:05:36;;;;;;;3.70;3.40;;;16.90;53.40;;;;;;4162813;28;20387;-62
2023/01/28 11:08:19;;;;;;;3.30;3.10;;;16.90;53.50;;;;;;4189716;28;20048;-61
2023/01/28 11:10:59;;;;;;;3.88;3.53;;;16.90;53.60;;;;;;4174919;28;20777;-61
2023/01/28 11:13:57;;;;;;;4.63;3.03;;;16.90;53.20;;;;;;4184378;28;20055;-61
2023/01/28 11:16:40;;;;;;;4.20;3.65;;;16.90;53.00;;;;;;4177586;28;20151;-61
2023/01/28 11:19:29;;;;;;;4.68;3.53;;;17.00;52.90;;;;;;4179257;28;20060;-61
2023/01/28 11:22:24;;;;;;;3.95;3.70;;;17.00;53.10;;;;;;4185695;28;20052;-61
2023/01/28 11:25:16;;;;;;;4.68;4.03;;;17.00;53.20;;;;;;4179612;28;20063;-61
2023/01/28 11:27:58;;;;;;;3.97;3.67;;;17.00;53.20;;;;;;4194779;28;20056;-60
2023/01/28 11:30:41;;;;;;;4.35;3.95;;;17.00;53.20;;;;;;4170072;28;20055;-61
2023/01/28 11:33:24;;;;;;;5.55;5.25;;;17.00;53.20;;;;;;4195003;28;20075;-61
2023/01/28 11:36:13;;;;;;;4.45;4.22;;;17.10;53.20;;;;;;4195542;28;20125;-60
2023/01/28 11:38:56;;;;;;;5.00;3.92;;;17.10;53.10;;;;;;4194086;28;20056;-60
2023/01/28 11:41:38;;;;;;;4.55;4.18;;;17.10;53.10;;;;;;4194928;28;20445;-59
2023/01/28 11:44:22;;;;;;;4.35;4.05;;;17.10;53.20;;;;;;4192424;28;20059;-60
2023/01/28 11:47:42;;;;;;;4.55;3.85;;;17.00;53.30;;;;;;4178390;28;20138;-60
2023/01/28 11:50:33;;;;;;;4.18;3.92;;;17.00;53.20;;;;;;4178402;28;20089;-60
2023/01/28 11:53:39;;;;;;;4.27;3.87;;;16.90;53.70;;;;;;4181813;28;20238;-59
2023/01/28 11:56:30;;;;;;;4.50;4.10;;;16.80;53.80;;;;;;4178016;28;20503;-59
2023/01/28 11:59:27;;;;;;;4.20;4.00;;;16.80;54.20;;;;;;4190593;28;20059;-60
2023/01/28 12:02:24;;;;;;;3.55;3.35;;;16.60;54.10;;;;;;4194298;28;20153;-60
2023/01/28 12:05:21;;;;;;;4.90;3.80;;;16.50;54.20;;;;;;4180969;28;20400;-61
2023/01/28 12:08:09;;;;;;;4.55;4.25;;;16.50;54.20;;;;;;4177384;28;20067;-61
2023/01/28 12:11:06;;;;;;;4.07;3.78;;;16.40;54.10;;;;;;4190297;28;20055;-60
2023/01/28 12:14:01;;;;;;;4.35;3.95;;;16.40;54.20;;;;;;4174475;28;20055;-60
2023/01/28 12:16:54;;;;;;;4.25;3.95;;;16.30;54.30;;;;;;4181408;28;20159;-60
2023/01/28 12:19:53;;;;;;;5.20;4.65;;;16.30;54.20;;;;;;4188576;28;20047;-60
2023/01/28 12:22:52;;;;;;;4.15;3.75;;;16.30;54.00;;;;;;4190843;28;20055;-60
2023/01/28 12:25:46;;;;;;;3.88;3.58;;;16.30;54.50;;;;;;4177923;28;20179;-60
2023/01/28 12:28:44;;;;;;;3.83;3.53;;;16.20;54.80;;;;;;4184301;28;20497;-60
2023/01/28 12:31:51;;;;;;;4.05;3.78;;;16.10;55.00;;;;;;4192051;28;20074;-61
2023/01/28 12:35:02;;;;;;;3.95;3.65;;;16.00;55.00;;;;;;4180941;28;20121;-60
2023/01/28 12:37:58;;;;;;;4.57;4.07;;;16.00;55.20;;;;;;4193440;28;20507;-60
2023/01/28 12:40:49;;;;;;;4.55;4.15;;;15.90;55.20;;;;;;4194166;28;20475;-59
2023/01/28 12:43:43;;;;;;;4.03;3.72;;;15.90;55.20;;;;;;4194450;28;20048;-59
2023/01/28 12:46:39;;;;;;;4.50;4.18;;;15.90;56.10;;;;;;4193675;28;20198;-60
2023/01/28 12:49:24;;;;;;;4.80;4.10;;;16.00;55.40;;;;;;4191453;28;20503;-59
2023/01/28 12:52:10;;;;;;;5.60;3.90;;;16.10;55.20;;;;;;4186179;28;20395;-59
2023/01/28 12:54:58;;;;;;;5.00;4.60;;;16.10;54.90;;;;;;4193516;28;20055;-59
2023/01/28 12:57:39;;;;;;;4.20;3.95;;;16.20;54.70;;;;;;4193422;28;20121;-59
2023/01/28 13:00:28;;;;;;;5.50;4.35;;;16.30;54.70;;;;;;4192955;28;20110;-59
2023/01/28 13:03:17;;;;;;;4.50;4.10;;;16.40;54.10;;;;;;4193688;28;20383;-60
2023/01/28 13:06:02;;;;;;;4.68;4.28;;;16.40;54.30;;;;;;4193855;28;20048;-59
2023/01/28 13:08:43;;;;;;;4.47;4.20;;;16.50;54.50;;;;;;4193881;28;20182;-59
2023/01/28 13:11:34;;;;;;;4.72;4.30;;;16.50;54.70;;;;;;4193395;28;20064;-59
2023/01/28 13:14:16;;;;;;;5.32;4.53;;;16.50;54.80;;;;;;4193267;28;20418;-60
2023/01/28 13:17:09;;;;;;;4.72;4.35;;;16.40;54.90;;;;;;4193967;28;20050;-59
2023/01/28 13:19:50;;;;;;;5.55;5.07;;;16.40;55.00;;;;;;4177592;28;20051;-60
2023/01/28 13:22:34;;;;;;;5.60;5.10;;;16.30;55.70;;;;;;4193558;28;20060;-59
2023/01/28 13:25:23;;;;;;;6.28;4.75;;;16.20;56.50;;;;;;4176873;28;20150;-59
2023/01/28 13:28:06;;;;;;;5.07;4.68;;;16.20;56.50;;;;;;4192121;28;20059;-59
2023/01/28 13:30:49;;;;;;;5.47;4.97;;;16.20;56.80;;;;;;4193708;28;20055;-59
2023/01/28 13:33:35;;;;;;;5.45;4.95;;;16.10;56.80;;;;;;4193734;28;20528;-59
2023/01/28 13:36:25;;;;;;;5.72;5.05;;;16.10;56.80;;;;;;4192781;28;20059;-59
2023/01/28 13:39:18;;;;;;;5.78;4.47;;;16.00;57.00;;;;;;4177326;28;20048;-59
2023/01/28 13:42:22;;;;;;;5.18;4.65;;;16.00;57.00;;;;;;4192537;28;20600;-60
2023/01/28 13:45:23;;;;;;;6.65;5.65;;;16.00;56.80;;;;;;4192090;28;20505;-59
2023/01/28 13:48:24;;;;;;;4.68;4.38;;;16.00;56.40;;;;;;4192742;28;20117;-68
2023/01/28 13:51:16;;;;;;;4.90;4.50;;;16.00;56.50;;;;;;4192061;28;20044;-69
2023/01/28 13:54:02;;;;;;;5.68;4.93;;;16.10;56.60;;;;;;4192961;28;20129;-69
2023/01/28 13:57:06;;;;;;;5.53;5.03;;;16.10;56.50;;;;;;4192775;28;20383;-69
2023/01/28 13:59:57;;;;;;;6.05;5.40;;;16.10;56.20;;;;;;4192481;28;20051;-69
2023/01/28 14:03:03;;;;;;;5.22;4.75;;;16.20;56.10;;;;;;4193388;28;20405;-68
2023/01/28 14:06:02;;;;;;;4.90;4.35;;;16.20;55.80;;;;;;4193181;28;20047;-68
2023/01/28 14:08:58;;;;;;;5.20;4.80;;;16.20;55.80;;;;;;4192648;28;20106;-68
2023/01/28 14:12:08;;;;;;;7.75;4.43;;;16.20;55.60;;;;;;4192854;28;20144;-68
2023/01/28 14:15:09;;;;;;;5.90;5.40;;;16.20;55.60;;;;;;4191639;28;20059;-68
2023/01/28 14:17:54;;;;;;;4.53;4.13;;;16.10;55.60;;;;;;4191084;28;20133;-69
2023/01/28 14:20:43;;;;;;;5.65;5.15;;;16.00;55.70;;;;;;4192569;28;20052;-68
2023/01/28 14:23:25;;;;;;;4.88;4.38;;;16.00;55.90;;;;;;4192517;28;20063;-68
2023/01/28 14:26:23;;;;;;;4.20;3.80;;;16.10;55.80;;;;;;4192659;28;20162;-67
2023/01/28 14:29:16;;;;;;;15.45;8.20;;;16.10;55.50;;;;;;4183084;28;20044;-67
2023/01/28 14:31:57;;;;;;;7.10;5.07;;;16.10;55.60;;;;;;4166845;28;20506;-68
2023/01/28 14:34:39;;;;;;;5.32;4.80;;;16.10;55.70;;;;;;4183925;28;20130;-68
2023/01/28 14:37:22;;;;;;;5.43;4.22;;;16.10;55.80;;;;;;4186834;28;20054;-68
2023/01/28 14:40:07;;;;;;;4.70;4.30;;;16.10;56.40;;;;;;4188878;28;20047;-68
2023/01/28 14:42:53;;;;;;;7.13;5.25;;;16.10;55.90;;;;;;4192619;28;20051;-69
2023/01/28 14:45:50;;;;;;;5.25;4.35;;;16.10;55.80;;;;;;4173649;28;20052;-68
2023/01/28 14:48:37;;;;;;;5.38;4.88;;;16.10;56.30;;;;;;4188691;28;20055;-68
2023/01/28 14:51:49;;;;;;;6.47;5.97;;;16.10;55.90;;;;;;4191475;28;20121;-69
2023/01/28 14:54:51;;;;;;;5.93;5.43;;;16.20;55.40;;;;;;4135901;28;20199;-69
2023/01/28 14:57:43;;;;;;;4.47;4.07;;;16.10;55.30;;;;;;4192287;28;20055;-69
2023/01/28 15:00:28;;;;;;;4.80;4.30;;;16.10;55.40;;;;;;4192005;28;20060;-61